Time;durP1;ratioP1;P1;durP2;ratioP2;P2;SDS_P1;SDS_P2;PMS_P1;PMS_P2;Temp;Humidity;BMP_temperature;BMP_pressure;BME280_temperature;BME280_humidity;BME280_pressure;Samples;Min_cycle;Max_cycle;Signal;HPM_P1;HPM_P2
2024/04/20 00:01:49;;;;;;;;;11.67;7.00;;;;;;;;5482461;25;43668;-46
2024/04/20 00:04:14;;;;;;;;;9.33;6.67;;;;;;;;5487849;25;43776;-47
2024/04/20 00:06:39;;;;;;;;;14.00;7.00;;;;;;;;5493928;25;45357;-46
2024/04/20 00:09:04;;;;;;;;;9.00;5.67;;;;;;;;5470487;25;43854;-44
2024/04/20 00:11:29;;;;;;;;;8.33;7.00;;;;;;;;5495132;25;43874;-45
2024/04/20 00:13:55;;;;;;;;;8.67;5.67;;;;;;;;5471952;25;43978;-47
2024/04/20 00:16:20;;;;;;;;;9.67;9.67;;;;;;;;5495354;25;44040;-48
2024/04/20 00:18:45;;;;;;;;;13.00;8.33;;;;;;;;5480429;25;43859;-46
2024/04/20 00:21:10;;;;;;;;;9.67;5.00;;;;;;;;5479530;25;44096;-45
2024/04/20 00:23:35;;;;;;;;;5.33;5.33;;;;;;;;5467786;25;43666;-47
2024/04/20 00:26:04;;;;;;;;;5.33;4.67;;;;;;;;5471151;25;43985;-47
2024/04/20 00:28:30;;;;;;;;;9.67;5.67;;;;;;;;5481194;25;43984;-45
2024/04/20 00:30:58;;;;;;;;;5.67;4.00;;;;;;;;5501670;25;44034;-46
2024/04/20 00:33:23;;;;;;;;;8.33;6.00;;;;;;;;5487845;25;43899;-45
2024/04/20 00:35:49;;;;;;;;;4.00;4.00;;;;;;;;5492647;25;43780;-45
2024/04/20 00:38:14;;;;;;;;;8.33;5.00;;;;;;;;5482464;25;44076;-45
2024/04/20 00:40:39;;;;;;;;;5.00;4.00;;;;;;;;5481699;25;43855;-49
2024/04/20 00:43:04;;;;;;;;;6.33;4.67;;;;;;;;5489447;25;43838;-49
2024/04/20 00:45:31;;;;;;;;;8.67;4.33;;;;;;;;5479944;25;44348;-45
2024/04/20 00:47:56;;;;;;;;;12.67;4.00;;;;;;;;5501082;25;43915;-46
2024/04/20 00:50:21;;;;;;;;;5.33;5.33;;;;;;;;5482149;25;43968;-47
2024/04/20 00:52:46;;;;;;;;;12.33;6.00;;;;;;;;5472019;25;43867;-45
2024/04/20 00:55:12;;;;;;;;;9.67;5.00;;;;;;;;5490295;25;43978;-46
2024/04/20 00:57:37;;;;;;;;;5.33;4.33;;;;;;;;5501697;25;43846;-45
2024/04/20 01:00:03;;;;;;;;;7.33;6.00;;;;;;;;5483737;25;43813;-47
2024/04/20 01:02:28;;;;;;;;;4.00;4.00;;;;;;;;5503685;25;43927;-46
2024/04/20 01:04:54;;;;;;;;;9.00;5.00;;;;;;;;5477554;25;45703;-44
2024/04/20 01:07:19;;;;;;;;;6.67;4.00;;;;;;;;5485908;25;43906;-48
2024/04/20 01:09:44;;;;;;;;;9.67;4.33;;;;;;;;5450606;25;43878;-45
2024/04/20 01:12:09;;;;;;;;;10.00;6.00;;;;;;;;5472476;25;43895;-47
2024/04/20 01:14:35;;;;;;;;;9.00;7.67;;;;;;;;5476694;25;44083;-45
2024/04/20 01:17:02;;;;;;;;;11.00;11.00;;;;;;;;5497556;25;44005;-46
2024/04/20 01:19:28;;;;;;;;;10.00;9.00;;;;;;;;5470675;25;43962;-45
2024/04/20 01:21:53;;;;;;;;;10.00;7.00;;;;;;;;5469253;25;43891;-45
2024/04/20 01:24:21;;;;;;;;;9.00;6.00;;;;;;;;5473156;25;43818;-45
2024/04/20 01:26:46;;;;;;;;;9.33;6.00;;;;;;;;5482171;25;43969;-44
2024/04/20 01:29:11;;;;;;;;;7.00;5.00;;;;;;;;5482656;25;43924;-45
2024/04/20 01:31:36;;;;;;;;;11.33;8.33;;;;;;;;5491031;25;43831;-46
2024/04/20 01:34:02;;;;;;;;;9.33;6.00;;;;;;;;5492815;25;44906;-45
2024/04/20 01:36:27;;;;;;;;;14.33;8.00;;;;;;;;5471003;25;43722;-45
2024/04/20 01:38:54;;;;;;;;;8.00;5.67;;;;;;;;5494511;25;43801;-47
2024/04/20 01:41:19;;;;;;;;;5.67;5.00;;;;;;;;5483956;25;44018;-48
2024/04/20 01:43:44;;;;;;;;;9.67;6.00;;;;;;;;5482679;25;43816;-47
2024/04/20 01:46:10;;;;;;;;;7.00;5.00;;;;;;;;5471004;25;43959;-45
2024/04/20 01:48:35;;;;;;;;;7.33;7.33;;;;;;;;5503124;25;44080;-45
2024/04/20 01:51:00;;;;;;;;;7.33;6.00;;;;;;;;5472991;25;44002;-45
2024/04/20 01:53:25;;;;;;;;;10.67;5.33;;;;;;;;5492082;25;44384;-45
2024/04/20 01:55:51;;;;;;;;;6.00;6.00;;;;;;;;5472904;25;43833;-45
2024/04/20 01:58:16;;;;;;;;;6.33;6.00;;;;;;;;5498125;25;43976;-45
2024/04/20 02:00:41;;;;;;;;;6.67;6.00;;;;;;;;5492597;25;43922;-46
2024/04/20 02:03:11;;;;;;;;;9.67;7.33;;;;;;;;5492165;25;44120;-45
2024/04/20 02:05:36;;;;;;;;;12.33;7.33;;;;;;;;5490577;25;44005;-46
2024/04/20 02:08:01;;;;;;;;;6.33;4.00;;;;;;;;5493252;25;44024;-45
2024/04/20 02:10:26;;;;;;;;;7.00;7.00;;;;;;;;5480522;25;44018;-46
2024/04/20 02:12:52;;;;;;;;;5.00;4.33;;;;;;;;5480697;25;44755;-48
2024/04/20 02:15:17;;;;;;;;;6.67;5.67;;;;;;;;5491248;25;43816;-45
2024/04/20 02:17:42;;;;;;;;;9.00;6.00;;;;;;;;5492330;25;43971;-44
2024/04/20 02:20:07;;;;;;;;;5.67;4.00;;;;;;;;5467851;25;43972;-45
2024/04/20 02:22:32;;;;;;;;;6.00;4.67;;;;;;;;5466258;25;45354;-46
2024/04/20 02:24:57;;;;;;;;;4.67;4.67;;;;;;;;5490936;25;43846;-49
2024/04/20 02:27:23;;;;;;;;;5.00;4.00;;;;;;;;5467198;25;43835;-46
2024/04/20 02:29:48;;;;;;;;;4.00;4.00;;;;;;;;5491168;25;44402;-46
2024/04/20 02:32:13;;;;;;;;;4.67;4.00;;;;;;;;5490438;25;43993;-46
2024/04/20 02:34:38;;;;;;;;;5.67;3.00;;;;;;;;5468296;25;44241;-46
2024/04/20 02:37:09;;;;;;;;;4.00;2.00;;;;;;;;5467791;25;43730;-46
2024/04/20 02:39:34;;;;;;;;;3.00;1.00;;;;;;;;5490750;25;43936;-47
2024/04/20 02:41:59;;;;;;;;;6.00;1.00;;;;;;;;5467691;25;43936;-46
2024/04/20 02:44:24;;;;;;;;;4.33;2.67;;;;;;;;5492092;25;43839;-48
2024/04/20 02:46:49;;;;;;;;;3.00;2.00;;;;;;;;5468630;25;44003;-47
2024/04/20 02:49:15;;;;;;;;;3.00;2.00;;;;;;;;5492400;25;44046;-46
2024/04/20 02:51:40;;;;;;;;;3.00;2.00;;;;;;;;5467256;25;45054;-45
2024/04/20 02:54:05;;;;;;;;;2.33;2.33;;;;;;;;5500686;25;43821;-45
2024/04/20 02:56:30;;;;;;;;;1.00;1.00;;;;;;;;5499225;25;44038;-44
2024/04/20 02:58:56;;;;;;;;;1.67;1.33;;;;;;;;5490511;25;44210;-45
2024/04/20 03:01:23;;;;;;;;;4.33;2.33;;;;;;;;5503292;25;44006;-45
2024/04/20 03:03:48;;;;;;;;;2.67;2.00;;;;;;;;5502183;25;43922;-44
2024/04/20 03:06:13;;;;;;;;;1.67;1.00;;;;;;;;5485407;25;44096;-45
2024/04/20 03:08:38;;;;;;;;;2.00;2.00;;;;;;;;5502377;25;43744;-47
2024/04/20 03:11:04;;;;;;;;;1.00;1.00;;;;;;;;5450538;25;45166;-46
2024/04/20 03:13:29;;;;;;;;;5.00;1.00;;;;;;;;5463090;25;43836;-45
2024/04/20 03:15:59;;;;;;;;;5.00;2.00;;;;;;;;5472055;25;43946;-44
2024/04/20 03:18:24;;;;;;;;;2.00;1.67;;;;;;;;5494087;25;43887;-44
2024/04/20 03:20:51;;;;;;;;;1.33;1.00;;;;;;;;5487360;25;44379;-44
2024/04/20 03:23:16;;;;;;;;;6.33;1.33;;;;;;;;5472095;25;43865;-44
2024/04/20 03:25:41;;;;;;;;;2.67;1.00;;;;;;;;5467929;25;44013;-47
2024/04/20 03:28:06;;;;;;;;;2.67;2.00;;;;;;;;5472022;25;43972;-46
2024/04/20 03:30:32;;;;;;;;;2.67;2.67;;;;;;;;5467688;25;44228;-44
2024/04/20 03:32:57;;;;;;;;;4.67;2.00;;;;;;;;5479393;25;44317;-45
2024/04/20 03:35:22;;;;;;;;;1.67;1.67;;;;;;;;5486087;25;43902;-45
2024/04/20 03:37:47;;;;;;;;;2.33;1.67;;;;;;;;5473630;25;43942;-46
2024/04/20 03:40:12;;;;;;;;;3.67;2.00;;;;;;;;5469478;25;44606;-48
2024/04/20 03:42:37;;;;;;;;;2.00;1.00;;;;;;;;5493696;25;43883;-46
2024/04/20 03:45:03;;;;;;;;;1.00;1.00;;;;;;;;5437829;26;43946;-44
2024/04/20 03:47:28;;;;;;;;;4.67;2.00;;;;;;;;5499846;25;44168;-44
2024/04/20 03:49:54;;;;;;;;;4.67;2.00;;;;;;;;5483636;25;44805;-48
2024/04/20 03:52:19;;;;;;;;;2.00;2.00;;;;;;;;5481939;25;44002;-48
2024/04/20 03:54:44;;;;;;;;;1.00;1.00;;;;;;;;5483459;25;44321;-46
2024/04/20 03:57:09;;;;;;;;;10.33;1.00;;;;;;;;5483437;25;44023;-44
2024/04/20 03:59:35;;;;;;;;;3.67;2.33;;;;;;;;5483219;25;45258;-45
2024/04/20 04:02:00;;;;;;;;;2.00;2.00;;;;;;;;5501162;25;43860;-47
2024/04/20 04:04:25;;;;;;;;;2.00;2.00;;;;;;;;5484209;25;43937;-45
2024/04/20 04:06:50;;;;;;;;;0.67;0.67;;;;;;;;5501359;25;43971;-45
2024/04/20 04:09:15;;;;;;;;;2.67;2.00;;;;;;;;5484677;25;44721;-46
2024/04/20 04:11:43;;;;;;;;;3.67;2.33;;;;;;;;5495442;25;44019;-45
2024/04/20 04:14:08;;;;;;;;;4.67;3.67;;;;;;;;5472480;25;43937;-44
2024/04/20 04:16:33;;;;;;;;;3.33;2.00;;;;;;;;5495845;25;44282;-47
2024/04/20 04:18:58;;;;;;;;;1.33;1.33;;;;;;;;5466612;25;44826;-45
2024/04/20 04:21:23;;;;;;;;;1.00;1.00;;;;;;;;5467848;25;43683;-44
2024/04/20 04:23:48;;;;;;;;;3.33;3.00;;;;;;;;5481585;25;43979;-45
2024/04/20 04:26:14;;;;;;;;;3.00;2.00;;;;;;;;5468612;25;43950;-45
2024/04/20 04:28:39;;;;;;;;;4.00;4.00;;;;;;;;5483502;25;44908;-47
2024/04/20 04:31:04;;;;;;;;;3.00;3.00;;;;;;;;5474246;25;43915;-44
2024/04/20 04:33:29;;;;;;;;;11.00;2.00;;;;;;;;5466392;25;43938;-46
2024/04/20 04:35:58;;;;;;;;;3.00;1.67;;;;;;;;5468692;25;43937;-44
2024/04/20 04:38:24;;;;;;;;;2.00;1.00;;;;;;;;5452094;25;44845;-44
2024/04/20 04:40:49;;;;;;;;;1.00;1.00;;;;;;;;5446357;25;43965;-45
2024/04/20 04:43:14;;;;;;;;;2.33;2.33;;;;;;;;5484845;25;44093;-45
2024/04/20 04:45:39;;;;;;;;;4.33;3.00;;;;;;;;5468023;25;43784;-45
2024/04/20 04:48:05;;;;;;;;;4.33;2.00;;;;;;;;5483154;25;45200;-47
2024/04/20 04:50:31;;;;;;;;;4.00;2.33;;;;;;;;5478949;25;43934;-45
2024/04/20 04:52:57;;;;;;;;;3.67;3.67;;;;;;;;5485518;25;43987;-49
2024/04/20 04:55:22;;;;;;;;;5.00;3.33;;;;;;;;5475847;25;43868;-47
2024/04/20 04:57:47;;;;;;;;;4.67;2.00;;;;;;;;5500687;25;44951;-45
2024/04/20 05:00:12;;;;;;;;;4.00;2.33;;;;;;;;5476540;25;43692;-46
2024/04/20 05:02:38;;;;;;;;;1.67;1.67;;;;;;;;5484451;25;43894;-46
2024/04/20 05:05:03;;;;;;;;;2.67;1.33;;;;;;;;5497630;25;44376;-45
2024/04/20 05:07:28;;;;;;;;;4.00;2.00;;;;;;;;5483329;25;44857;-46
2024/04/20 05:09:53;;;;;;;;;3.33;0.67;;;;;;;;5498577;25;44409;-46
2024/04/20 05:12:18;;;;;;;;;3.00;1.00;;;;;;;;5468506;25;43962;-46
2024/04/20 05:14:44;;;;;;;;;1.67;1.33;;;;;;;;5472461;25;43887;-46
2024/04/20 05:17:10;;;;;;;;;2.00;2.00;;;;;;;;5482296;25;44643;-45
2024/04/20 05:19:35;;;;;;;;;2.33;1.67;;;;;;;;5477363;25;44257;-45
2024/04/20 05:22:00;;;;;;;;;1.00;1.00;;;;;;;;5486804;25;44109;-45
2024/04/20 05:24:26;;;;;;;;;3.33;1.33;;;;;;;;5467887;25;44230;-47
2024/04/20 05:26:52;;;;;;;;;1.00;1.00;;;;;;;;5470368;25;44800;-45
2024/04/20 05:29:17;;;;;;;;;1.00;1.00;;;;;;;;5467729;25;43959;-45
2024/04/20 05:31:42;;;;;;;;;3.33;1.00;;;;;;;;5479933;25;43947;-45
2024/04/20 05:34:08;;;;;;;;;6.00;2.33;;;;;;;;5475566;25;43910;-45
2024/04/20 05:36:33;;;;;;;;;5.00;0.00;;;;;;;;5479155;25;46046;-46
2024/04/20 05:38:58;;;;;;;;;1.33;1.33;;;;;;;;5476310;25;43955;-48
2024/04/20 05:41:23;;;;;;;;;5.00;2.00;;;;;;;;5479899;25;43773;-46
2024/04/20 05:43:49;;;;;;;;;2.33;1.00;;;;;;;;5477727;25;44261;-45
2024/04/20 05:46:14;;;;;;;;;5.67;2.00;;;;;;;;5474196;25;45027;-46
2024/04/20 05:48:39;;;;;;;;;2.00;2.00;;;;;;;;5493626;25;44076;-45
2024/04/20 05:51:04;;;;;;;;;1.33;0.67;;;;;;;;5470954;25;43976;-46
2024/04/20 05:53:29;;;;;;;;;2.00;2.00;;;;;;;;5473581;25;44004;-46
2024/04/20 05:55:54;;;;;;;;;1.00;1.00;;;;;;;;5498576;25;43909;-48
2024/04/20 05:58:20;;;;;;;;;1.00;1.00;;;;;;;;5494706;25;43830;-46
2024/04/20 06:00:47;;;;;;;;;2.67;1.00;;;;;;;;5470455;25;43936;-47
2024/04/20 06:03:12;;;;;;;;;1.00;1.00;;;;;;;;5481753;25;43913;-47
2024/04/20 06:05:41;;;;;;;;;4.00;1.00;;;;;;;;5468647;25;44194;-46
2024/04/20 06:08:06;;;;;;;;;3.67;1.67;;;;;;;;5496058;25;43987;-45
2024/04/20 06:10:31;;;;;;;;;1.00;1.00;;;;;;;;5489334;25;43772;-46
2024/04/20 06:12:56;;;;;;;;;2.67;1.00;;;;;;;;5496027;25;43963;-47
2024/04/20 06:15:22;;;;;;;;;2.33;1.00;;;;;;;;5500442;25;44095;-47
2024/04/20 06:17:47;;;;;;;;;2.00;1.00;;;;;;;;5478483;25;43856;-47
2024/04/20 06:20:12;;;;;;;;;4.33;1.67;;;;;;;;5479727;25;43855;-48
2024/04/20 06:22:37;;;;;;;;;2.00;2.00;;;;;;;;5479200;25;43848;-47
2024/04/20 06:25:04;;;;;;;;;1.33;0.33;;;;;;;;5468276;25;45566;-49
2024/04/20 06:27:29;;;;;;;;;0.00;0.00;;;;;;;;5479536;25;44109;-46
2024/04/20 06:29:54;;;;;;;;;1.00;1.00;;;;;;;;5479714;25;43968;-46
2024/04/20 06:32:19;;;;;;;;;1.00;0.00;;;;;;;;5480322;25;43889;-49
2024/04/20 06:34:44;;;;;;;;;2.67;1.00;;;;;;;;5492109;25;43892;-47
2024/04/20 06:37:11;;;;;;;;;0.33;0.33;;;;;;;;5469280;25;43948;-46
2024/04/20 06:39:37;;;;;;;;;0.00;0.00;;;;;;;;5467887;25;43898;-47
2024/04/20 06:42:02;;;;;;;;;1.00;1.00;;;;;;;;5469875;25;43965;-45
2024/04/20 06:44:27;;;;;;;;;2.33;1.00;;;;;;;;5474588;25;45922;-45
2024/04/20 06:46:53;;;;;;;;;1.67;1.67;;;;;;;;5469022;25;43861;-45
2024/04/20 06:49:18;;;;;;;;;2.00;1.00;;;;;;;;5491501;25;44010;-44
2024/04/20 06:51:43;;;;;;;;;1.00;1.00;;;;;;;;5491040;25;44506;-47
2024/04/20 06:54:08;;;;;;;;;2.00;0.00;;;;;;;;5481353;25;45182;-46
2024/04/20 06:56:33;;;;;;;;;2.33;1.00;;;;;;;;5489696;25;44412;-46
2024/04/20 06:58:58;;;;;;;;;3.67;1.33;;;;;;;;5502486;25;44365;-45
2024/04/20 07:01:24;;;;;;;;;4.00;2.33;;;;;;;;5502449;25;44171;-47
2024/04/20 07:03:49;;;;;;;;;4.33;1.00;;;;;;;;5502239;25;43933;-47
2024/04/20 07:06:14;;;;;;;;;2.00;2.00;;;;;;;;5443261;25;44578;-45
2024/04/20 07:08:39;;;;;;;;;2.00;1.67;;;;;;;;5478428;25;43863;-45
2024/04/20 07:11:05;;;;;;;;;3.67;2.00;;;;;;;;5483086;25;43886;-45
2024/04/20 07:13:34;;;;;;;;;6.00;3.00;;;;;;;;5501702;25;43903;-48
2024/04/20 07:15:59;;;;;;;;;4.00;1.67;;;;;;;;5483811;25;43841;-46
2024/04/20 07:18:26;;;;;;;;;0.33;0.00;;;;;;;;5491975;25;44057;-46
2024/04/20 07:20:51;;;;;;;;;2.00;1.67;;;;;;;;5456195;25;43994;-46
2024/04/20 07:23:16;;;;;;;;;2.67;0.67;;;;;;;;5470680;25;44073;-46
2024/04/20 07:25:41;;;;;;;;;2.67;2.67;;;;;;;;5486719;25;43791;-47
2024/04/20 07:28:06;;;;;;;;;1.33;1.00;;;;;;;;5471186;25;43950;-48
2024/04/20 07:30:32;;;;;;;;;0.00;0.00;;;;;;;;5466865;25;44022;-46
2024/04/20 07:32:57;;;;;;;;;1.50;1.00;;;;;;;;5477979;25;44813;-45
2024/04/20 07:35:22;;;;;;;;;2.00;1.00;;;;;;;;5490174;25;43923;-46
2024/04/20 07:37:47;;;;;;;;;0.25;0.00;;;;;;;;5468946;25;43821;-49
2024/04/20 07:40:12;;;;;;;;;2.00;1.00;;;;;;;;5480402;25;43832;-49
2024/04/20 07:42:37;;;;;;;;;3.00;1.00;;;;;;;;5468549;25;45737;-49
2024/04/20 07:45:03;;;;;;;;;1.50;1.25;;;;;;;;5485779;25;43905;-47
2024/04/20 07:47:28;;;;;;;;;1.25;1.25;;;;;;;;5477311;25;44283;-46
2024/04/20 07:49:53;;;;;;;;;0.25;0.25;;;;;;;;5482230;25;43879;-46
2024/04/20 07:52:19;;;;;;;;;2.00;2.00;;;;;;;;5492318;25;44173;-46
2024/04/20 07:54:45;;;;;;;;;4.75;1.25;;;;;;;;5488230;25;43898;-46
2024/04/20 07:57:10;;;;;;;;;1.00;1.00;;;;;;;;5498449;25;43973;-47
2024/04/20 07:59:39;;;;;;;;;3.00;1.00;;;;;;;;5501777;25;43686;-49
2024/04/20 08:02:09;;;;;;;;;4.00;1.00;;;;;;;;5480863;25;45801;-49
2024/04/20 08:04:34;;;;;;;;;0.00;0.00;;;;;;;;5501470;25;43666;-46
2024/04/20 08:06:59;;;;;;;;;3.00;1.00;;;;;;;;5472699;25;44693;-46
2024/04/20 08:09:24;;;;;;;;;2.00;2.00;;;;;;;;5469323;25;44019;-46
2024/04/20 08:11:49;;;;;;;;;2.00;2.00;;;;;;;;5482106;25;44150;-47
2024/04/20 08:14:14;;;;;;;;;2.00;1.00;;;;;;;;5486897;25;44430;-45
2024/04/20 08:16:40;;;;;;;;;1.33;1.33;;;;;;;;5501243;25;43794;-45
2024/04/20 08:19:05;;;;;;;;;2.00;1.00;;;;;;;;5482457;25;43851;-46
2024/04/20 08:21:30;;;;;;;;;1.75;1.75;;;;;;;;5473717;25;45274;-45
2024/04/20 08:23:55;;;;;;;;;1.67;0.00;;;;;;;;5491757;25;44038;-46
2024/04/20 08:26:20;;;;;;;;;0.00;0.00;;;;;;;;5472412;25;43936;-45
2024/04/20 08:28:45;;;;;;;;;1.33;1.00;;;;;;;;5466651;25;43986;-47
2024/04/20 08:31:11;;;;;;;;;2.00;2.00;;;;;;;;5468133;25;45021;-45
2024/04/20 08:33:36;;;;;;;;;4.00;2.00;;;;;;;;5480614;25;43859;-49
2024/04/20 08:36:01;;;;;;;;;2.00;1.00;;;;;;;;5459273;25;43958;-48
2024/04/20 08:38:27;;;;;;;;;1.00;1.00;;;;;;;;5466950;25;43908;-45
2024/04/20 08:40:57;;;;;;;;;0.33;0.33;;;;;;;;5492010;25;44902;-46
2024/04/20 08:43:22;;;;;;;;;2.00;1.00;;;;;;;;5467956;25;43898;-46
2024/04/20 08:45:49;;;;;;;;;2.33;1.00;;;;;;;;5471726;25;44503;-46
2024/04/20 08:48:15;;;;;;;;;1.67;1.00;;;;;;;;5485674;25;43978;-45
2024/04/20 08:50:42;;;;;;;;;1.00;1.00;;;;;;;;5473009;25;45075;-48
2024/04/20 08:53:08;;;;;;;;;2.00;0.67;;;;;;;;5477062;25;43994;-48
2024/04/20 08:55:34;;;;;;;;;3.67;1.67;;;;;;;;5466889;25;43975;-45
2024/04/20 08:57:59;;;;;;;;;2.00;2.00;;;;;;;;5492490;25;44715;-48
2024/04/20 09:00:28;;;;;;;;;3.00;2.00;;;;;;;;5499429;25;44041;-48
2024/04/20 09:02:53;;;;;;;;;1.00;1.00;;;;;;;;5481368;25;44546;-46
2024/04/20 09:05:18;;;;;;;;;2.00;1.00;;;;;;;;5499673;25;43923;-46
2024/04/20 09:07:44;;;;;;;;;1.00;1.00;;;;;;;;5500527;25;43962;-47
2024/04/20 09:10:09;;;;;;;;;1.67;1.67;;;;;;;;5441584;25;44625;-46
2024/04/20 09:12:34;;;;;;;;;2.00;0.00;;;;;;;;5468572;25;44041;-49
2024/04/20 09:15:04;;;;;;;;;0.75;0.75;;;;;;;;5492678;25;43713;-48
2024/04/20 09:17:29;;;;;;;;;3.00;0.00;;;;;;;;5485912;25;43981;-45
2024/04/20 09:19:59;;;;;;;;;0.67;0.67;;;;;;;;5496065;25;45355;-46
2024/04/20 09:22:24;;;;;;;;;2.00;1.00;;;;;;;;5467888;25;44083;-45
2024/04/20 09:24:58;;;;;;;;;5.00;2.00;;;;;;;;5469492;25;43880;-49
2024/04/20 09:27:24;;;;;;;;;1.00;1.00;;;;;;;;5467541;25;43929;-45
2024/04/20 09:29:50;;;;;;;;;2.67;1.00;;;;;;;;5469455;25;43993;-47
2024/04/20 09:32:15;;;;;;;;;4.00;2.00;;;;;;;;5435857;26;43955;-46
2024/04/20 09:34:40;;;;;;;;;4.00;2.33;;;;;;;;5492408;25;43894;-49
2024/04/20 09:37:06;;;;;;;;;2.33;0.67;;;;;;;;5468500;25;43860;-49
2024/04/20 09:39:31;;;;;;;;;2.00;2.00;;;;;;;;5502984;25;44003;-45
2024/04/20 09:42:01;;;;;;;;;5.33;2.00;;;;;;;;5449560;26;43857;-46
2024/04/20 09:44:27;;;;;;;;;2.67;1.67;;;;;;;;5489675;25;43983;-49
2024/04/20 09:46:54;;;;;;;;;2.67;1.33;;;;;;;;5491404;25;43933;-45
2024/04/20 09:49:24;;;;;;;;;3.33;1.67;;;;;;;;5499954;25;45914;-49
2024/04/20 09:51:56;;;;;;;;;1.00;1.00;;;;;;;;5480989;25;43852;-46
2024/04/20 09:54:25;;;;;;;;;1.00;1.00;;;;;;;;5469858;25;43913;-45
2024/04/20 09:56:51;;;;;;;;;2.33;0.00;;;;;;;;5493566;25;44074;-45
2024/04/20 09:59:18;;;;;;;;;1.00;1.00;;;;;;;;5475926;25;44778;-46
2024/04/20 10:01:50;;;;;;;;;2.67;1.00;;;;;;;;5494774;25;43636;-46
2024/04/20 10:04:17;;;;;;;;;3.00;0.00;;;;;;;;5486553;25;44016;-49
2024/04/20 10:06:42;;;;;;;;;1.67;1.00;;;;;;;;5499316;25;43816;-49
2024/04/20 10:09:07;;;;;;;;;2.33;0.00;;;;;;;;5471385;25;44863;-47
2024/04/20 10:11:35;;;;;;;;;1.67;1.67;;;;;;;;5495510;25;43899;-46
2024/04/20 10:14:02;;;;;;;;;3.00;1.67;;;;;;;;5487631;25;43946;-45
2024/04/20 10:16:27;;;;;;;;;3.67;2.00;;;;;;;;5480369;25;43992;-45
2024/04/20 10:18:52;;;;;;;;;2.33;2.33;;;;;;;;5484156;25;44866;-45
2024/04/20 10:21:17;;;;;;;;;2.00;2.00;;;;;;;;5478558;25;43843;-48
2024/04/20 10:23:44;;;;;;;;;4.33;3.00;;;;;;;;5468943;25;43878;-44
2024/04/20 10:26:09;;;;;;;;;3.00;2.67;;;;;;;;5472161;25;44004;-47
2024/04/20 10:28:39;;;;;;;;;2.33;2.33;;;;;;;;5483241;25;44993;-44
2024/04/20 10:31:05;;;;;;;;;3.00;2.00;;;;;;;;5446160;25;44606;-46
2024/04/20 10:33:31;;;;;;;;;4.33;3.00;;;;;;;;5487020;25;43873;-45
2024/04/20 10:36:02;;;;;;;;;3.00;3.00;;;;;;;;5494300;25;43841;-48
2024/04/20 10:38:28;;;;;;;;;3.33;2.00;;;;;;;;5468990;25;44837;-47
2024/04/20 10:40:54;;;;;;;;;3.00;3.00;;;;;;;;5477480;25;43858;-46
2024/04/20 10:43:23;;;;;;;;;4.00;2.33;;;;;;;;5487030;25;43869;-45
2024/04/20 10:46:05;;;;;;;;;3.67;2.33;;;;;;;;5478936;25;43840;-45
2024/04/20 10:48:33;;;;;;;;;3.33;2.00;;;;;;;;5486296;25;44733;-44
2024/04/20 10:50:59;;;;;;;;;4.00;3.00;;;;;;;;5493815;25;43944;-47
2024/04/20 10:53:26;;;;;;;;;2.33;2.00;;;;;;;;5484165;25;43912;-45
2024/04/20 10:55:56;;;;;;;;;8.00;2.67;;;;;;;;5491508;25;44151;-46
2024/04/20 10:58:21;;;;;;;;;3.33;2.33;;;;;;;;5460548;25;45654;-45
2024/04/20 11:00:46;;;;;;;;;4.33;2.33;;;;;;;;5481445;25;43819;-46
2024/04/20 11:03:13;;;;;;;;;2.00;2.00;;;;;;;;5501146;25;44096;-44
2024/04/20 11:05:38;;;;;;;;;5.00;3.00;;;;;;;;5502299;25;44079;-45
2024/04/20 11:08:04;;;;;;;;;4.67;3.67;;;;;;;;5483808;25;44366;-46
2024/04/20 11:10:29;;;;;;;;;2.00;1.67;;;;;;;;5501821;25;44003;-45
2024/04/20 11:13:02;;;;;;;;;1.00;1.00;;;;;;;;5500906;25;44062;-49
2024/04/20 11:15:27;;;;;;;;;3.33;2.00;;;;;;;;5490308;25;44117;-47
2024/04/20 11:17:53;;;;;;;;;3.00;3.00;;;;;;;;5495261;25;44541;-45
2024/04/20 11:20:19;;;;;;;;;6.00;4.00;;;;;;;;5483106;25;44351;-46
2024/04/20 11:22:45;;;;;;;;;4.00;3.00;;;;;;;;5471413;25;43942;-46
2024/04/20 11:25:11;;;;;;;;;3.00;2.33;;;;;;;;5469163;25;45345;-47
2024/04/20 11:27:36;;;;;;;;;3.00;2.00;;;;;;;;5439428;25;43855;-48
2024/04/20 11:30:02;;;;;;;;;6.33;3.00;;;;;;;;5481042;25;43871;-45
2024/04/20 11:32:27;;;;;;;;;3.67;2.00;;;;;;;;5481054;25;43905;-47
2024/04/20 11:34:53;;;;;;;;;9.00;3.00;;;;;;;;5481833;25;44750;-46
2024/04/20 11:37:22;;;;;;;;;2.00;2.00;;;;;;;;5481479;25;44015;-46
2024/04/20 11:39:47;;;;;;;;;4.00;2.33;;;;;;;;5481627;25;43845;-46
2024/04/20 11:42:16;;;;;;;;;2.33;2.33;;;;;;;;5499779;25;44376;-44
2024/04/20 11:44:41;;;;;;;;;5.00;3.00;;;;;;;;5489857;25;44111;-48
2024/04/20 11:47:15;;;;;;;;;5.33;3.00;;;;;;;;5474814;25;44859;-46
2024/04/20 11:49:46;;;;;;;;;3.00;3.00;;;;;;;;5484586;25;43860;-46
2024/04/20 11:55:05;;;;;;;;;3.00;3.00;;;;;;;;5501583;25;43729;-45
2024/04/20 11:57:30;;;;;;;;;3.00;3.00;;;;;;;;5501597;25;44697;-44
2024/04/20 11:59:55;;;;;;;;;2.00;2.00;;;;;;;;5501735;25;44031;-44
2024/04/20 12:02:20;;;;;;;;;3.67;3.00;;;;;;;;5501584;25;43768;-45
2024/04/20 12:04:45;;;;;;;;;4.33;2.00;;;;;;;;5501666;25;43933;-45
2024/04/20 12:07:11;;;;;;;;;3.00;3.00;;;;;;;;5501701;25;43809;-45
2024/04/20 12:09:36;;;;;;;;;4.33;4.00;;;;;;;;5501305;25;44021;-44
2024/04/20 12:12:01;;;;;;;;;3.00;3.00;;;;;;;;5478943;25;43687;-44
2024/04/20 12:14:26;;;;;;;;;4.33;3.67;;;;;;;;5492165;25;44169;-46
2024/04/20 12:16:51;;;;;;;;;5.33;3.00;;;;;;;;5483216;25;46137;-45
2024/04/20 12:19:16;;;;;;;;;5.67;4.00;;;;;;;;5447975;26;43906;-45
2024/04/20 12:21:42;;;;;;;;;3.00;3.00;;;;;;;;5491896;25;44003;-46
2024/04/20 12:24:07;;;;;;;;;8.00;3.00;;;;;;;;5467191;25;43772;-44
2024/04/20 12:26:33;;;;;;;;;3.00;3.00;;;;;;;;5479207;25;44884;-47
2024/04/20 12:28:58;;;;;;;;;3.33;3.00;;;;;;;;5481702;25;43889;-46
2024/04/20 12:31:24;;;;;;;;;3.33;2.00;;;;;;;;5493066;25;44455;-45
2024/04/20 12:33:49;;;;;;;;;2.00;2.00;;;;;;;;5469521;25;43926;-44
2024/04/20 12:36:14;;;;;;;;;2.33;2.33;;;;;;;;5481699;25;44854;-48
2024/04/20 12:38:39;;;;;;;;;3.33;3.33;;;;;;;;5481205;25;43933;-46
2024/04/20 12:41:05;;;;;;;;;4.00;2.00;;;;;;;;5481751;25;44002;-45
2024/04/20 12:43:30;;;;;;;;;4.00;2.00;;;;;;;;5482048;25;43875;-46
2024/04/20 12:45:56;;;;;;;;;3.33;2.00;;;;;;;;5462419;25;46501;-46
2024/04/20 12:48:21;;;;;;;;;2.67;2.00;;;;;;;;5489193;25;43832;-47
2024/04/20 12:50:46;;;;;;;;;1.00;1.00;;;;;;;;5481875;25;43907;-46
2024/04/20 12:53:11;;;;;;;;;1.33;1.33;;;;;;;;5484547;25;43806;-45
2024/04/20 12:55:37;;;;;;;;;2.00;1.00;;;;;;;;5502702;25;44851;-45
2024/04/20 12:58:02;;;;;;;;;1.00;1.00;;;;;;;;5494230;25;43992;-45
2024/04/20 13:00:27;;;;;;;;;4.00;2.00;;;;;;;;5464118;26;43745;-47
2024/04/20 13:02:52;;;;;;;;;2.00;2.00;;;;;;;;5473311;25;43994;-46
2024/04/20 13:05:17;;;;;;;;;1.00;1.00;;;;;;;;5478198;25;43905;-47
2024/04/20 13:07:43;;;;;;;;;0.00;0.00;;;;;;;;5492098;25;43917;-47
2024/04/20 13:10:08;;;;;;;;;0.67;0.67;;;;;;;;5470937;25;44042;-45
2024/04/20 13:12:34;;;;;;;;;0.67;0.67;;;;;;;;5503853;25;43944;-46
2024/04/20 13:14:59;;;;;;;;;0.67;0.67;;;;;;;;5503541;25;44103;-45
2024/04/20 13:17:24;;;;;;;;;4.00;2.00;;;;;;;;5497621;25;43995;-45
2024/04/20 13:19:53;;;;;;;;;1.33;0.67;;;;;;;;5481457;25;43968;-48
2024/04/20 13:22:18;;;;;;;;;1.00;1.00;;;;;;;;5466609;25;44039;-45
2024/04/20 13:24:43;;;;;;;;;0.33;0.33;;;;;;;;5480179;25;44430;-45
2024/04/20 13:27:09;;;;;;;;;1.67;0.00;;;;;;;;5485141;25;44025;-45
2024/04/20 13:29:34;;;;;;;;;1.67;0.67;;;;;;;;5499127;25;44023;-46
2024/04/20 13:31:59;;;;;;;;;1.67;0.67;;;;;;;;5486779;25;43909;-44
2024/04/20 13:34:24;;;;;;;;;2.00;2.00;;;;;;;;5493557;25;45099;-46
2024/04/20 13:36:49;;;;;;;;;5.33;2.00;;;;;;;;5469382;25;43992;-47
2024/04/20 13:39:15;;;;;;;;;4.00;2.00;;;;;;;;5471580;25;43845;-46
2024/04/20 13:41:40;;;;;;;;;4.00;2.00;;;;;;;;5468714;25;43856;-46
2024/04/20 13:44:06;;;;;;;;;6.67;2.00;;;;;;;;5493141;25;44897;-47
2024/04/20 13:46:32;;;;;;;;;2.00;2.00;;;;;;;;5468465;25;43814;-45
2024/04/20 13:48:58;;;;;;;;;2.00;1.33;;;;;;;;5493492;25;43896;-45
2024/04/20 13:51:26;;;;;;;;;3.00;2.00;;;;;;;;5480218;25;44505;-45
2024/04/20 13:53:51;;;;;;;;;4.00;1.33;;;;;;;;5478702;25;44990;-45
2024/04/20 13:56:17;;;;;;;;;2.33;1.67;;;;;;;;5502486;25;44112;-45
2024/04/20 13:58:43;;;;;;;;;3.33;2.33;;;;;;;;5502877;25;44273;-48
2024/04/20 14:01:09;;;;;;;;;1.33;1.33;;;;;;;;5498793;25;43935;-46
2024/04/20 14:03:35;;;;;;;;;4.00;2.00;;;;;;;;5477602;25;44414;-45
2024/04/20 14:06:00;;;;;;;;;1.33;1.33;;;;;;;;5455862;25;43919;-48
2024/04/20 14:08:25;;;;;;;;;3.00;3.00;;;;;;;;5481143;25;43708;-47
2024/04/20 14:10:58;;;;;;;;;2.00;2.00;;;;;;;;5477421;25;43902;-46
2024/04/20 14:13:23;;;;;;;;;2.00;2.00;;;;;;;;5495043;25;45054;-46
2024/04/20 14:15:53;;;;;;;;;1.67;1.67;;;;;;;;5483814;25;43962;-46
2024/04/20 14:18:18;;;;;;;;;2.00;2.00;;;;;;;;5475473;25;45769;-45
2024/04/20 14:20:43;;;;;;;;;2.00;2.00;;;;;;;;5476041;25;44816;-45
2024/04/20 14:23:08;;;;;;;;;2.00;2.00;;;;;;;;5492622;25;44468;-45
2024/04/20 14:25:34;;;;;;;;;4.33;3.33;;;;;;;;5481565;25;43895;-46
2024/04/20 14:28:00;;;;;;;;;5.33;3.00;;;;;;;;5461799;25;43703;-45
2024/04/20 14:30:26;;;;;;;;;1.67;1.00;;;;;;;;5454658;25;44087;-47
2024/04/20 14:32:51;;;;;;;;;3.67;2.00;;;;;;;;5476424;25;43975;-47
2024/04/20 14:35:16;;;;;;;;;3.33;2.00;;;;;;;;5473592;25;43835;-46
2024/04/20 14:37:41;;;;;;;;;3.00;1.00;;;;;;;;5477638;25;43941;-46